Wednesday, December 19, 2018, 4:24 PM GMT
Back to Local

CWRK, Bancroft Automatic Weather Reporting System

Location: , , Canada Lat: 45.067
Local Time: 4:24 PM GMT (16:24 GMT) Lon: -77.867
Time Zone: GMT Elev: 1085 ft

Show me the last for .
Show Coded

Time T Td Feel RH Dir Speed Gust Alt SLP Vis Weather Sky Remarks
2018-12-19 16:00 26 20 20 79 190° 5 - - 29.98 0 None
2018-12-19 15:00 21 19 - 91 - Calm - - 30.01 0 None
2018-12-19 14:00 17 14 - 86 110° 1 - - 30.02 0 None
2018-12-19 13:00 16 14 11 89 200° 3 - - 30.00 0 None
2018-12-19 12:00 10 7 - 87 190° 1 - - 30.02 0 None
2018-12-19 11:00 8 4 - 86 - Calm - - 30.05 0 None
2018-12-19 10:00 5 2 - 84 - Calm - - 30.04 0 None
2018-12-19 09:00 4 0 - 84 - Calm - - 30.04 0 None
2018-12-19 08:00 3 -1 - 83 - Calm - - 30.06 0 None
2018-12-19 07:00 2 -1 - 84 - Calm - - 30.07 0 None
2018-12-19 06:00 0 -4 - 82 - Calm - - 30.09 0 None
2018-12-19 05:00 1 -2 - 84 - Calm - - 30.10 0 None
2018-12-19 04:00 2 -2 - 83 240° 1 - - 30.11 0 None
2018-12-19 03:00 2 -2 - 83 - Calm - - 30.14 0 None
2018-12-19 02:00 4 0 - 84 - Calm - - 30.16 0 None
2018-12-19 01:00 4 0 - 85 - Calm - - 30.19 0 None
2018-12-19 00:00 5 2 - 85 - Calm - - 30.19 0 None
2018-12-18 23:00 8 4 - 82 - Calm - - 30.19 0 None
2018-12-18 22:00 12 5 - 72 210° 1 - - 30.18 0 None
2018-12-18 21:00 17 5 - 56 260° 1 - - 30.18 0 None
2018-12-18 20:00 19 5 12 53 290° 5 - - 30.19 0 None
2018-12-18 19:00 18 3 9 52 320° 6 - - 30.18 0 None
2018-12-18 18:00 19 4 10 51 350° 6 - - 30.19 0 None
2018-12-18 17:00 16 4 7 59 350° 6 - - 30.21 0 None

Support USWX by starting your Amazon purchase here.